METAR Data
IDs: Format: Raw Decoded Include TAF

Data at: 0745 UTC 07 Apr 2020

METAR for:EKRN (Ronne/Bornholm Arpt, --, DN)
Text:EKRN 070720Z AUTO 30015KT 9999 NCD 09/06 Q1026
Temperature: 9.0°C ( 48°F)
Dewpoint: 6.0°C ( 43°F) [RH = 81%]
Pressure (altimeter):30.30 inches Hg (1026.0 mb)
Winds:from the WNW (300 degrees) at 17 MPH (15 knots; 7.7 m/s)
Visibility:6 or more sm (10+ km)
Ceiling:at least 12,000 feet AGL
Clouds:sky clear below 12,000 feet AGL
Text:EKRN 070650Z AUTO 30013KT 9999 NCD 09/05 Q1025
Temperature: 9.0°C ( 48°F)
Dewpoint: 5.0°C ( 41°F) [RH = 76%]
Pressure (altimeter):30.27 inches Hg (1025.0 mb)
Winds:from the WNW (300 degrees) at 15 MPH (13 knots; 6.7 m/s)
Visibility:6 or more sm (10+ km)
Ceiling:at least 12,000 feet AGL
Clouds:sky clear below 12,000 feet AGL
Text:EKRN 070620Z AUTO 28008KT 9999 NCD 08/05 Q1025
Temperature: 8.0°C ( 46°F)
Dewpoint: 5.0°C ( 41°F) [RH = 81%]
Pressure (altimeter):30.27 inches Hg (1025.0 mb)
Winds:from the W (280 degrees) at 9 MPH (8 knots; 4.1 m/s)
Visibility:6 or more sm (10+ km)
Ceiling:at least 12,000 feet AGL
Clouds:sky clear below 12,000 feet AGL
Text:EKRN 070550Z AUTO 26006KT 180V280 9999 NCD 09/05 Q1025
Temperature: 9.0°C ( 48°F)
Dewpoint: 5.0°C ( 41°F) [RH = 76%]
Pressure (altimeter):30.27 inches Hg (1025.0 mb)
Winds:from the W (260 degrees) at 7 MPH (6 knots; 3.1 m/s)
Visibility:6 or more sm (10+ km)
Ceiling:at least 12,000 feet AGL
Clouds:sky clear below 12,000 feet AGL
Text:EKRN 070520Z AUTO VRB01KT 9999 NCD 07/04 Q1024
Temperature: 7.0°C ( 45°F)
Dewpoint: 4.0°C ( 39°F) [RH = 81%]
Pressure (altimeter):30.24 inches Hg (1024.0 mb)
Winds:variable direction winds at 1 MPH (1 knots; 0.5 m/s)
Visibility:6 or more sm (10+ km)
Ceiling:at least 12,000 feet AGL
Clouds:sky clear below 12,000 feet AGL
Text:EKRN 070450Z AUTO 16003KT 9999 NCD 08/03 Q1024
Temperature: 8.0°C ( 46°F)
Dewpoint: 3.0°C ( 37°F) [RH = 71%]
Pressure (altimeter):30.24 inches Hg (1024.0 mb)
Winds:from the SSE (160 degrees) at 3 MPH (3 knots; 1.5 m/s)
Visibility:6 or more sm (10+ km)
Ceiling:at least 12,000 feet AGL
Clouds:sky clear below 12,000 feet AGL
Text:EKRN 070420Z AUTO VRB01KT 9999 NCD 07/03 Q1024
Temperature: 7.0°C ( 45°F)
Dewpoint: 3.0°C ( 37°F) [RH = 76%]
Pressure (altimeter):30.24 inches Hg (1024.0 mb)
Winds:variable direction winds at 1 MPH (1 knots; 0.5 m/s)
Visibility:6 or more sm (10+ km)
Ceiling:at least 12,000 feet AGL
Clouds:sky clear below 12,000 feet AGL
Text:EKRN 070350Z AUTO 23004KT 180V270 9999 NCD 10/03 Q1024
Temperature: 10.0°C ( 50°F)
Dewpoint: 3.0°C ( 37°F) [RH = 62%]
Pressure (altimeter):30.24 inches Hg (1024.0 mb)
Winds:from the SW (230 degrees) at 5 MPH (4 knots; 2.1 m/s)
Visibility:6 or more sm (10+ km)
Ceiling:at least 12,000 feet AGL
Clouds:sky clear below 12,000 feet AGL
Text:EKRN 070320Z AUTO 18005KT 120V220 9999 NCD 10/03 Q1023
Temperature: 10.0°C ( 50°F)
Dewpoint: 3.0°C ( 37°F) [RH = 62%]
Pressure (altimeter):30.21 inches Hg (1023.0 mb)
Winds:from the S (180 degrees) at 6 MPH (5 knots; 2.6 m/s)
Visibility:6 or more sm (10+ km)
Ceiling:at least 12,000 feet AGL
Clouds:sky clear below 12,000 feet AGL
Text:EKRN 070250Z AUTO 14003KT 9999 NCD 08/03 Q1023
Temperature: 8.0°C ( 46°F)
Dewpoint: 3.0°C ( 37°F) [RH = 71%]
Pressure (altimeter):30.21 inches Hg (1023.0 mb)
Winds:from the SE (140 degrees) at 3 MPH (3 knots; 1.5 m/s)
Visibility:6 or more sm (10+ km)
Ceiling:at least 12,000 feet AGL
Clouds:sky clear below 12,000 feet AGL
Text:EKRN 070220Z AUTO VRB02KT 9999 NCD 09/04 Q1023
Temperature: 9.0°C ( 48°F)
Dewpoint: 4.0°C ( 39°F) [RH = 71%]
Pressure (altimeter):30.21 inches Hg (1023.0 mb)
Winds:variable direction winds at 2 MPH (2 knots; 1.0 m/s)
Visibility:6 or more sm (10+ km)
Ceiling:at least 12,000 feet AGL
Clouds:sky clear below 12,000 feet AGL
Text:EKRN 070150Z AUTO 19004KT 110V220 9999 NCD 08/03 Q1023
Temperature: 8.0°C ( 46°F)
Dewpoint: 3.0°C ( 37°F) [RH = 71%]
Pressure (altimeter):30.21 inches Hg (1023.0 mb)
Winds:from the S (190 degrees) at 5 MPH (4 knots; 2.1 m/s)
Visibility:6 or more sm (10+ km)
Ceiling:at least 12,000 feet AGL
Clouds:sky clear below 12,000 feet AGL
Text:EKRN 070120Z AUTO 19008KT 9999 NCD 09/04 Q1023
Temperature: 9.0°C ( 48°F)
Dewpoint: 4.0°C ( 39°F) [RH = 71%]
Pressure (altimeter):30.21 inches Hg (1023.0 mb)
Winds:from the S (190 degrees) at 9 MPH (8 knots; 4.1 m/s)
Visibility:6 or more sm (10+ km)
Ceiling:at least 12,000 feet AGL
Clouds:sky clear below 12,000 feet AGL
Text:EKRN 070050Z AUTO 18007KT 9999 NCD 09/04 Q1023
Temperature: 9.0°C ( 48°F)
Dewpoint: 4.0°C ( 39°F) [RH = 71%]
Pressure (altimeter):30.21 inches Hg (1023.0 mb)
Winds:from the S (180 degrees) at 8 MPH (7 knots; 3.6 m/s)
Visibility:6 or more sm (10+ km)
Ceiling:at least 12,000 feet AGL
Clouds:sky clear below 12,000 feet AGL
Text:EKRN 070020Z AUTO 19008KT 9999 NCD 09/04 Q1023
Temperature: 9.0°C ( 48°F)
Dewpoint: 4.0°C ( 39°F) [RH = 71%]
Pressure (altimeter):30.21 inches Hg (1023.0 mb)
Winds:from the S (190 degrees) at 9 MPH (8 knots; 4.1 m/s)
Visibility:6 or more sm (10+ km)
Ceiling:at least 12,000 feet AGL
Clouds:sky clear below 12,000 feet AGL
Text:EKRN 062350Z AUTO 18008KT 9999 NCD 08/04 Q1023
Temperature: 8.0°C ( 46°F)
Dewpoint: 4.0°C ( 39°F) [RH = 76%]
Pressure (altimeter):30.21 inches Hg (1023.0 mb)
Winds:from the S (180 degrees) at 9 MPH (8 knots; 4.1 m/s)
Visibility:6 or more sm (10+ km)
Ceiling:at least 12,000 feet AGL
Clouds:sky clear below 12,000 feet AGL
Text:EKRN 062320Z AUTO 14004KT 110V170 9999 NCD 08/03 Q1023
Temperature: 8.0°C ( 46°F)
Dewpoint: 3.0°C ( 37°F) [RH = 71%]
Pressure (altimeter):30.21 inches Hg (1023.0 mb)
Winds:from the SE (140 degrees) at 5 MPH (4 knots; 2.1 m/s)
Visibility:6 or more sm (10+ km)
Ceiling:at least 12,000 feet AGL
Clouds:sky clear below 12,000 feet AGL
Text:EKRN 062250Z AUTO 16006KT 9999 NCD 09/04 Q1023
Temperature: 9.0°C ( 48°F)
Dewpoint: 4.0°C ( 39°F) [RH = 71%]
Pressure (altimeter):30.21 inches Hg (1023.0 mb)
Winds:from the SSE (160 degrees) at 7 MPH (6 knots; 3.1 m/s)
Visibility:6 or more sm (10+ km)
Ceiling:at least 12,000 feet AGL
Clouds:sky clear below 12,000 feet AGL
Text:EKRN 062220Z AUTO 17007KT 9999 NCD 08/03 Q1023
Temperature: 8.0°C ( 46°F)
Dewpoint: 3.0°C ( 37°F) [RH = 71%]
Pressure (altimeter):30.21 inches Hg (1023.0 mb)
Winds:from the S (170 degrees) at 8 MPH (7 knots; 3.6 m/s)
Visibility:6 or more sm (10+ km)
Ceiling:at least 12,000 feet AGL
Clouds:sky clear below 12,000 feet AGL
Text:EKRN 062150Z AUTO 15007KT 9999 NCD 09/03 Q1023
Temperature: 9.0°C ( 48°F)
Dewpoint: 3.0°C ( 37°F) [RH = 66%]
Pressure (altimeter):30.21 inches Hg (1023.0 mb)
Winds:from the SSE (150 degrees) at 8 MPH (7 knots; 3.6 m/s)
Visibility:6 or more sm (10+ km)
Ceiling:at least 12,000 feet AGL
Clouds:sky clear below 12,000 feet AGL
Text:EKRN 062120Z AUTO 15009KT 9999 NCD 10/03 Q1023
Temperature: 10.0°C ( 50°F)
Dewpoint: 3.0°C ( 37°F) [RH = 62%]
Pressure (altimeter):30.21 inches Hg (1023.0 mb)
Winds:from the SSE (150 degrees) at 10 MPH (9 knots; 4.6 m/s)
Visibility:6 or more sm (10+ km)
Ceiling:at least 12,000 feet AGL
Clouds:sky clear below 12,000 feet AGL
Text:EKRN 062050Z AUTO 15009KT 9999 NCD 11/03 Q1023
Temperature: 11.0°C ( 52°F)
Dewpoint: 3.0°C ( 37°F) [RH = 58%]
Pressure (altimeter):30.21 inches Hg (1023.0 mb)
Winds:from the SSE (150 degrees) at 10 MPH (9 knots; 4.6 m/s)
Visibility:6 or more sm (10+ km)
Ceiling:at least 12,000 feet AGL
Clouds:sky clear below 12,000 feet AGL
Text:EKRN 062020Z AUTO 15008KT 9999 NCD 11/03 Q1023
Temperature: 11.0°C ( 52°F)
Dewpoint: 3.0°C ( 37°F) [RH = 58%]
Pressure (altimeter):30.21 inches Hg (1023.0 mb)
Winds:from the SSE (150 degrees) at 9 MPH (8 knots; 4.1 m/s)
Visibility:6 or more sm (10+ km)
Ceiling:at least 12,000 feet AGL
Clouds:sky clear below 12,000 feet AGL
Text:EKRN 061950Z AUTO 15009KT 9999 NCD 12/02 Q1023
Temperature: 12.0°C ( 54°F)
Dewpoint: 2.0°C ( 36°F) [RH = 50%]
Pressure (altimeter):30.21 inches Hg (1023.0 mb)
Winds:from the SSE (150 degrees) at 10 MPH (9 knots; 4.6 m/s)
Visibility:6 or more sm (10+ km)
Ceiling:at least 12,000 feet AGL
Clouds:sky clear below 12,000 feet AGL
Text:EKRN 061920Z AUTO 13007KT 9999 NCD 11/02 Q1023
Temperature: 11.0°C ( 52°F)
Dewpoint: 2.0°C ( 36°F) [RH = 54%]
Pressure (altimeter):30.21 inches Hg (1023.0 mb)
Winds:from the SE (130 degrees) at 8 MPH (7 knots; 3.6 m/s)
Visibility:6 or more sm (10+ km)
Ceiling:at least 12,000 feet AGL
Clouds:sky clear below 12,000 feet AGL
Text:EKRN 061850Z AUTO 13008KT 9999 NCD 10/02 Q1023
Temperature: 10.0°C ( 50°F)
Dewpoint: 2.0°C ( 36°F) [RH = 57%]
Pressure (altimeter):30.21 inches Hg (1023.0 mb)
Winds:from the SE (130 degrees) at 9 MPH (8 knots; 4.1 m/s)
Visibility:6 or more sm (10+ km)
Ceiling:at least 12,000 feet AGL
Clouds:sky clear below 12,000 feet AGL
Text:EKRN 061820Z AUTO 13007KT 9999 NCD 09/02 Q1023
Temperature: 9.0°C ( 48°F)
Dewpoint: 2.0°C ( 36°F) [RH = 61%]
Pressure (altimeter):30.21 inches Hg (1023.0 mb)
Winds:from the SE (130 degrees) at 8 MPH (7 knots; 3.6 m/s)
Visibility:6 or more sm (10+ km)
Ceiling:at least 12,000 feet AGL
Clouds:sky clear below 12,000 feet AGL
Text:EKRN 061750Z AUTO 13008KT 9999 NCD 10/02 Q1023
Temperature: 10.0°C ( 50°F)
Dewpoint: 2.0°C ( 36°F) [RH = 57%]
Pressure (altimeter):30.21 inches Hg (1023.0 mb)
Winds:from the SE (130 degrees) at 9 MPH (8 knots; 4.1 m/s)
Visibility:6 or more sm (10+ km)
Ceiling:at least 12,000 feet AGL
Clouds:sky clear below 12,000 feet AGL
Text:EKRN 061720Z AUTO 13010KT 9999 NCD 10/03 Q1023
Temperature: 10.0°C ( 50°F)
Dewpoint: 3.0°C ( 37°F) [RH = 62%]
Pressure (altimeter):30.21 inches Hg (1023.0 mb)
Winds:from the SE (130 degrees) at 12 MPH (10 knots; 5.1 m/s)
Visibility:6 or more sm (10+ km)
Ceiling:at least 12,000 feet AGL
Clouds:sky clear below 12,000 feet AGL
Text:EKRN 061650Z AUTO 13011KT 9999 NCD 11/03 Q1023
Temperature: 11.0°C ( 52°F)
Dewpoint: 3.0°C ( 37°F) [RH = 58%]
Pressure (altimeter):30.21 inches Hg (1023.0 mb)
Winds:from the SE (130 degrees) at 13 MPH (11 knots; 5.7 m/s)
Visibility:6 or more sm (10+ km)
Ceiling:at least 12,000 feet AGL
Clouds:sky clear below 12,000 feet AGL
Text:EKRN 061620Z AUTO 12012KT 9999 NCD 12/03 Q1023
Temperature: 12.0°C ( 54°F)
Dewpoint: 3.0°C ( 37°F) [RH = 54%]
Pressure (altimeter):30.21 inches Hg (1023.0 mb)
Winds:from the ESE (120 degrees) at 14 MPH (12 knots; 6.2 m/s)
Visibility:6 or more sm (10+ km)
Ceiling:at least 12,000 feet AGL
Clouds:sky clear below 12,000 feet AGL
Text:EKRN 061550Z AUTO 12012KT 9999 NCD 12/03 Q1023
Temperature: 12.0°C ( 54°F)
Dewpoint: 3.0°C ( 37°F) [RH = 54%]
Pressure (altimeter):30.21 inches Hg (1023.0 mb)
Winds:from the ESE (120 degrees) at 14 MPH (12 knots; 6.2 m/s)
Visibility:6 or more sm (10+ km)
Ceiling:at least 12,000 feet AGL
Clouds:sky clear below 12,000 feet AGL
Text:EKRN 061520Z AUTO 12012KT 9999 NCD 12/03 Q1023
Temperature: 12.0°C ( 54°F)
Dewpoint: 3.0°C ( 37°F) [RH = 54%]
Pressure (altimeter):30.21 inches Hg (1023.0 mb)
Winds:from the ESE (120 degrees) at 14 MPH (12 knots; 6.2 m/s)
Visibility:6 or more sm (10+ km)
Ceiling:at least 12,000 feet AGL
Clouds:sky clear below 12,000 feet AGL
Text:EKRN 061450Z AUTO 12013KT 9999 NCD 14/02 Q1024
Temperature: 14.0°C ( 57°F)
Dewpoint: 2.0°C ( 36°F) [RH = 44%]
Pressure (altimeter):30.24 inches Hg (1024.0 mb)
Winds:from the ESE (120 degrees) at 15 MPH (13 knots; 6.7 m/s)
Visibility:6 or more sm (10+ km)
Ceiling:at least 12,000 feet AGL
Clouds:sky clear below 12,000 feet AGL
Text:EKRN 061420Z AUTO 12013KT 9999 NCD 14/02 Q1024
Temperature: 14.0°C ( 57°F)
Dewpoint: 2.0°C ( 36°F) [RH = 44%]
Pressure (altimeter):30.24 inches Hg (1024.0 mb)
Winds:from the ESE (120 degrees) at 15 MPH (13 knots; 6.7 m/s)
Visibility:6 or more sm (10+ km)
Ceiling:at least 12,000 feet AGL
Clouds:sky clear below 12,000 feet AGL
Text:EKRN 061350Z AUTO 12015KT 9999 NCD 14/02 Q1024
Temperature: 14.0°C ( 57°F)
Dewpoint: 2.0°C ( 36°F) [RH = 44%]
Pressure (altimeter):30.24 inches Hg (1024.0 mb)
Winds:from the ESE (120 degrees) at 17 MPH (15 knots; 7.7 m/s)
Visibility:6 or more sm (10+ km)
Ceiling:at least 12,000 feet AGL
Clouds:sky clear below 12,000 feet AGL
Text:EKRN 061320Z AUTO 12015KT 9999 NCD 14/01 Q1024
Temperature: 14.0°C ( 57°F)
Dewpoint: 1.0°C ( 34°F) [RH = 41%]
Pressure (altimeter):30.24 inches Hg (1024.0 mb)
Winds:from the ESE (120 degrees) at 17 MPH (15 knots; 7.7 m/s)
Visibility:6 or more sm (10+ km)
Ceiling:at least 12,000 feet AGL
Clouds:sky clear below 12,000 feet AGL
Text:EKRN 061250Z AUTO 12013KT 9999 NCD 13/02 Q1025
Temperature: 13.0°C ( 55°F)
Dewpoint: 2.0°C ( 36°F) [RH = 47%]
Pressure (altimeter):30.27 inches Hg (1025.0 mb)
Winds:from the ESE (120 degrees) at 15 MPH (13 knots; 6.7 m/s)
Visibility:6 or more sm (10+ km)
Ceiling:at least 12,000 feet AGL
Clouds:sky clear below 12,000 feet AGL
Text:EKRN 061220Z AUTO 12012KT 9999 NCD 13/02 Q1025
Temperature: 13.0°C ( 55°F)
Dewpoint: 2.0°C ( 36°F) [RH = 47%]
Pressure (altimeter):30.27 inches Hg (1025.0 mb)
Winds:from the ESE (120 degrees) at 14 MPH (12 knots; 6.2 m/s)
Visibility:6 or more sm (10+ km)
Ceiling:at least 12,000 feet AGL
Clouds:sky clear below 12,000 feet AGL
Text:EKRN 061150Z AUTO 12013KT 9999 NCD 12/02 Q1025
Temperature: 12.0°C ( 54°F)
Dewpoint: 2.0°C ( 36°F) [RH = 50%]
Pressure (altimeter):30.27 inches Hg (1025.0 mb)
Winds:from the ESE (120 degrees) at 15 MPH (13 knots; 6.7 m/s)
Visibility:6 or more sm (10+ km)
Ceiling:at least 12,000 feet AGL
Clouds:sky clear below 12,000 feet AGL
Text:EKRN 061120Z AUTO 12013KT 9999 NCD 11/02 Q1025
Temperature: 11.0°C ( 52°F)
Dewpoint: 2.0°C ( 36°F) [RH = 54%]
Pressure (altimeter):30.27 inches Hg (1025.0 mb)
Winds:from the ESE (120 degrees) at 15 MPH (13 knots; 6.7 m/s)
Visibility:6 or more sm (10+ km)
Ceiling:at least 12,000 feet AGL
Clouds:sky clear below 12,000 feet AGL
Text:EKRN 061050Z AUTO 12014KT 9999 NCD 11/03 Q1025
Temperature: 11.0°C ( 52°F)
Dewpoint: 3.0°C ( 37°F) [RH = 58%]
Pressure (altimeter):30.27 inches Hg (1025.0 mb)
Winds:from the ESE (120 degrees) at 16 MPH (14 knots; 7.2 m/s)
Visibility:6 or more sm (10+ km)
Ceiling:at least 12,000 feet AGL
Clouds:sky clear below 12,000 feet AGL
Text:EKRN 061020Z AUTO 12013KT 9999 NCD 10/02 Q1026
Temperature: 10.0°C ( 50°F)
Dewpoint: 2.0°C ( 36°F) [RH = 57%]
Pressure (altimeter):30.30 inches Hg (1026.0 mb)
Winds:from the ESE (120 degrees) at 15 MPH (13 knots; 6.7 m/s)
Visibility:6 or more sm (10+ km)
Ceiling:at least 12,000 feet AGL
Clouds:sky clear below 12,000 feet AGL
Text:EKRN 060950Z AUTO 12013KT 9999 NCD 10/02 Q1026
Temperature: 10.0°C ( 50°F)
Dewpoint: 2.0°C ( 36°F) [RH = 57%]
Pressure (altimeter):30.30 inches Hg (1026.0 mb)
Winds:from the ESE (120 degrees) at 15 MPH (13 knots; 6.7 m/s)
Visibility:6 or more sm (10+ km)
Ceiling:at least 12,000 feet AGL
Clouds:sky clear below 12,000 feet AGL
Text:EKRN 060920Z AUTO 12013KT 9999 NCD 09/01 Q1026
Temperature: 9.0°C ( 48°F)
Dewpoint: 1.0°C ( 34°F) [RH = 57%]
Pressure (altimeter):30.30 inches Hg (1026.0 mb)
Winds:from the ESE (120 degrees) at 15 MPH (13 knots; 6.7 m/s)
Visibility:6 or more sm (10+ km)
Ceiling:at least 12,000 feet AGL
Clouds:sky clear below 12,000 feet AGL
Text:EKRN 060850Z AUTO 12013KT 9999 NCD 09/02 Q1026
Temperature: 9.0°C ( 48°F)
Dewpoint: 2.0°C ( 36°F) [RH = 61%]
Pressure (altimeter):30.30 inches Hg (1026.0 mb)
Winds:from the ESE (120 degrees) at 15 MPH (13 knots; 6.7 m/s)
Visibility:6 or more sm (10+ km)
Ceiling:at least 12,000 feet AGL
Clouds:sky clear below 12,000 feet AGL
Text:EKRN 060820Z AUTO 12012KT 9999 NCD 09/02 Q1026
Temperature: 9.0°C ( 48°F)
Dewpoint: 2.0°C ( 36°F) [RH = 61%]
Pressure (altimeter):30.30 inches Hg (1026.0 mb)
Winds:from the ESE (120 degrees) at 14 MPH (12 knots; 6.2 m/s)
Visibility:6 or more sm (10+ km)
Ceiling:at least 12,000 feet AGL
Clouds:sky clear below 12,000 feet AGL
Text:EKRN 060750Z AUTO 12013KT 9999 NCD 08/02 Q1026
Temperature: 8.0°C ( 46°F)
Dewpoint: 2.0°C ( 36°F) [RH = 66%]
Pressure (altimeter):30.30 inches Hg (1026.0 mb)
Winds:from the ESE (120 degrees) at 15 MPH (13 knots; 6.7 m/s)
Visibility:6 or more sm (10+ km)
Ceiling:at least 12,000 feet AGL
Clouds:sky clear below 12,000 feet AGL
Text:EKRN 060720Z AUTO 12013KT 9999 NCD 08/02 Q1026
Temperature: 8.0°C ( 46°F)
Dewpoint: 2.0°C ( 36°F) [RH = 66%]
Pressure (altimeter):30.30 inches Hg (1026.0 mb)
Winds:from the ESE (120 degrees) at 15 MPH (13 knots; 6.7 m/s)
Visibility:6 or more sm (10+ km)
Ceiling:at least 12,000 feet AGL
Clouds:sky clear below 12,000 feet AGL
Text:EKRN 060650Z AUTO 12014KT 9999 NCD 08/02 Q1026
Temperature: 8.0°C ( 46°F)
Dewpoint: 2.0°C ( 36°F) [RH = 66%]
Pressure (altimeter):30.30 inches Hg (1026.0 mb)
Winds:from the ESE (120 degrees) at 16 MPH (14 knots; 7.2 m/s)
Visibility:6 or more sm (10+ km)
Ceiling:at least 12,000 feet AGL
Clouds:sky clear below 12,000 feet AGL
Text:EKRN 060620Z AUTO 12013KT 9999 NCD 08/01 Q1027
Temperature: 8.0°C ( 46°F)
Dewpoint: 1.0°C ( 34°F) [RH = 61%]
Pressure (altimeter):30.32 inches Hg (1027.0 mb)
Winds:from the ESE (120 degrees) at 15 MPH (13 knots; 6.7 m/s)
Visibility:6 or more sm (10+ km)
Ceiling:at least 12,000 feet AGL
Clouds:sky clear below 12,000 feet AGL
Text:EKRN 060550Z AUTO 12011KT 9999 NCD 07/02 Q1027
Temperature: 7.0°C ( 45°F)
Dewpoint: 2.0°C ( 36°F) [RH = 70%]
Pressure (altimeter):30.32 inches Hg (1027.0 mb)
Winds:from the ESE (120 degrees) at 13 MPH (11 knots; 5.7 m/s)
Visibility:6 or more sm (10+ km)
Ceiling:at least 12,000 feet AGL
Clouds:sky clear below 12,000 feet AGL
Text:EKRN 060520Z AUTO 12011KT 9999 NCD 07/01 Q1027
Temperature: 7.0°C ( 45°F)
Dewpoint: 1.0°C ( 34°F) [RH = 66%]
Pressure (altimeter):30.32 inches Hg (1027.0 mb)
Winds:from the ESE (120 degrees) at 13 MPH (11 knots; 5.7 m/s)
Visibility:6 or more sm (10+ km)
Ceiling:at least 12,000 feet AGL
Clouds:sky clear below 12,000 feet AGL
Text:EKRN 060450Z AUTO 11011KT 9999 NCD 06/01 Q1027
Temperature: 6.0°C ( 43°F)
Dewpoint: 1.0°C ( 34°F) [RH = 70%]
Pressure (altimeter):30.32 inches Hg (1027.0 mb)
Winds:from the ESE (110 degrees) at 13 MPH (11 knots; 5.7 m/s)
Visibility:6 or more sm (10+ km)
Ceiling:at least 12,000 feet AGL
Clouds:sky clear below 12,000 feet AGL
Text:EKRN 060420Z AUTO 12012KT 9999 NCD 06/01 Q1027
Temperature: 6.0°C ( 43°F)
Dewpoint: 1.0°C ( 34°F) [RH = 70%]
Pressure (altimeter):30.32 inches Hg (1027.0 mb)
Winds:from the ESE (120 degrees) at 14 MPH (12 knots; 6.2 m/s)
Visibility:6 or more sm (10+ km)
Ceiling:at least 12,000 feet AGL
Clouds:sky clear below 12,000 feet AGL
Text:EKRN 060350Z AUTO 12011KT 9999 NCD 06/01 Q1027
Temperature: 6.0°C ( 43°F)
Dewpoint: 1.0°C ( 34°F) [RH = 70%]
Pressure (altimeter):30.32 inches Hg (1027.0 mb)
Winds:from the ESE (120 degrees) at 13 MPH (11 knots; 5.7 m/s)
Visibility:6 or more sm (10+ km)
Ceiling:at least 12,000 feet AGL
Clouds:sky clear below 12,000 feet AGL
Text:EKRN 060320Z AUTO 11011KT 9999 NCD 06/00 Q1027
Temperature: 6.0°C ( 43°F)
Dewpoint: 0.0°C ( 32°F) [RH = 65%]
Pressure (altimeter):30.32 inches Hg (1027.0 mb)
Winds:from the ESE (110 degrees) at 13 MPH (11 knots; 5.7 m/s)
Visibility:6 or more sm (10+ km)
Ceiling:at least 12,000 feet AGL
Clouds:sky clear below 12,000 feet AGL
Text:EKRN 060250Z AUTO 11011KT 9999 NCD 06/01 Q1027
Temperature: 6.0°C ( 43°F)
Dewpoint: 1.0°C ( 34°F) [RH = 70%]
Pressure (altimeter):30.32 inches Hg (1027.0 mb)
Winds:from the ESE (110 degrees) at 13 MPH (11 knots; 5.7 m/s)
Visibility:6 or more sm (10+ km)
Ceiling:at least 12,000 feet AGL
Clouds:sky clear below 12,000 feet AGL
Text:EKRN 060220Z AUTO 11011KT 9999 NCD 06/00 Q1027
Temperature: 6.0°C ( 43°F)
Dewpoint: 0.0°C ( 32°F) [RH = 65%]
Pressure (altimeter):30.32 inches Hg (1027.0 mb)
Winds:from the ESE (110 degrees) at 13 MPH (11 knots; 5.7 m/s)
Visibility:6 or more sm (10+ km)
Ceiling:at least 12,000 feet AGL
Clouds:sky clear below 12,000 feet AGL
Text:EKRN 060150Z AUTO 12012KT 9999 NCD 07/00 Q1027
Temperature: 7.0°C ( 45°F)
Dewpoint: 0.0°C ( 32°F) [RH = 61%]
Pressure (altimeter):30.32 inches Hg (1027.0 mb)
Winds:from the ESE (120 degrees) at 14 MPH (12 knots; 6.2 m/s)
Visibility:6 or more sm (10+ km)
Ceiling:at least 12,000 feet AGL
Clouds:sky clear below 12,000 feet AGL
Text:EKRN 060120Z AUTO 12011KT 9999 NCD 07/01 Q1027
Temperature: 7.0°C ( 45°F)
Dewpoint: 1.0°C ( 34°F) [RH = 66%]
Pressure (altimeter):30.32 inches Hg (1027.0 mb)
Winds:from the ESE (120 degrees) at 13 MPH (11 knots; 5.7 m/s)
Visibility:6 or more sm (10+ km)
Ceiling:at least 12,000 feet AGL
Clouds:sky clear below 12,000 feet AGL
Text:EKRN 060050Z AUTO 12011KT 9999 NCD 07/01 Q1028
Temperature: 7.0°C ( 45°F)
Dewpoint: 1.0°C ( 34°F) [RH = 66%]
Pressure (altimeter):30.35 inches Hg (1028.0 mb)
Winds:from the ESE (120 degrees) at 13 MPH (11 knots; 5.7 m/s)
Visibility:6 or more sm (10+ km)
Ceiling:at least 12,000 feet AGL
Clouds:sky clear below 12,000 feet AGL
Text:EKRN 060020Z AUTO 12011KT 9999 NCD 07/02 Q1028
Temperature: 7.0°C ( 45°F)
Dewpoint: 2.0°C ( 36°F) [RH = 70%]
Pressure (altimeter):30.35 inches Hg (1028.0 mb)
Winds:from the ESE (120 degrees) at 13 MPH (11 knots; 5.7 m/s)
Visibility:6 or more sm (10+ km)
Ceiling:at least 12,000 feet AGL
Clouds:sky clear below 12,000 feet AGL
Text:EKRN 052350Z AUTO 12010KT 9999 NCD 06/02 Q1028
Temperature: 6.0°C ( 43°F)
Dewpoint: 2.0°C ( 36°F) [RH = 75%]
Pressure (altimeter):30.35 inches Hg (1028.0 mb)
Winds:from the ESE (120 degrees) at 12 MPH (10 knots; 5.1 m/s)
Visibility:6 or more sm (10+ km)
Ceiling:at least 12,000 feet AGL
Clouds:sky clear below 12,000 feet AGL
Text:EKRN 052320Z AUTO 12010KT 9999 NCD 06/02 Q1028
Temperature: 6.0°C ( 43°F)
Dewpoint: 2.0°C ( 36°F) [RH = 75%]
Pressure (altimeter):30.35 inches Hg (1028.0 mb)
Winds:from the ESE (120 degrees) at 12 MPH (10 knots; 5.1 m/s)
Visibility:6 or more sm (10+ km)
Ceiling:at least 12,000 feet AGL
Clouds:sky clear below 12,000 feet AGL
Text:EKRN 052250Z AUTO 12010KT 9999 NCD 07/02 Q1028
Temperature: 7.0°C ( 45°F)
Dewpoint: 2.0°C ( 36°F) [RH = 70%]
Pressure (altimeter):30.35 inches Hg (1028.0 mb)
Winds:from the ESE (120 degrees) at 12 MPH (10 knots; 5.1 m/s)
Visibility:6 or more sm (10+ km)
Ceiling:at least 12,000 feet AGL
Clouds:sky clear below 12,000 feet AGL
Text:EKRN 052220Z AUTO 12011KT 9999 NCD 07/01 Q1029
Temperature: 7.0°C ( 45°F)
Dewpoint: 1.0°C ( 34°F) [RH = 66%]
Pressure (altimeter):30.38 inches Hg (1029.0 mb)
Winds:from the ESE (120 degrees) at 13 MPH (11 knots; 5.7 m/s)
Visibility:6 or more sm (10+ km)
Ceiling:at least 12,000 feet AGL
Clouds:sky clear below 12,000 feet AGL
Text:EKRN 052150Z AUTO 12011KT 9999 NCD 07/02 Q1029
Temperature: 7.0°C ( 45°F)
Dewpoint: 2.0°C ( 36°F) [RH = 70%]
Pressure (altimeter):30.38 inches Hg (1029.0 mb)
Winds:from the ESE (120 degrees) at 13 MPH (11 knots; 5.7 m/s)
Visibility:6 or more sm (10+ km)
Ceiling:at least 12,000 feet AGL
Clouds:sky clear below 12,000 feet AGL
Text:EKRN 052120Z AUTO 11009KT 9999 NCD 07/01 Q1029
Temperature: 7.0°C ( 45°F)
Dewpoint: 1.0°C ( 34°F) [RH = 66%]
Pressure (altimeter):30.38 inches Hg (1029.0 mb)
Winds:from the ESE (110 degrees) at 10 MPH (9 knots; 4.6 m/s)
Visibility:6 or more sm (10+ km)
Ceiling:at least 12,000 feet AGL
Clouds:sky clear below 12,000 feet AGL
Text:EKRN 052050Z AUTO 10010KT 9999 NCD 07/01 Q1029
Temperature: 7.0°C ( 45°F)
Dewpoint: 1.0°C ( 34°F) [RH = 66%]
Pressure (altimeter):30.38 inches Hg (1029.0 mb)
Winds:from the E (100 degrees) at 12 MPH (10 knots; 5.1 m/s)
Visibility:6 or more sm (10+ km)
Ceiling:at least 12,000 feet AGL
Clouds:sky clear below 12,000 feet AGL
Text:EKRN 052020Z AUTO 09009KT 9999 NCD 07/01 Q1029
Temperature: 7.0°C ( 45°F)
Dewpoint: 1.0°C ( 34°F) [RH = 66%]
Pressure (altimeter):30.38 inches Hg (1029.0 mb)
Winds:from the E (90 degrees) at 10 MPH (9 knots; 4.6 m/s)
Visibility:6 or more sm (10+ km)
Ceiling:at least 12,000 feet AGL
Clouds:sky clear below 12,000 feet AGL
Text:EKRN 051950Z AUTO 10011KT 9999 NCD 07/01 Q1029
Temperature: 7.0°C ( 45°F)
Dewpoint: 1.0°C ( 34°F) [RH = 66%]
Pressure (altimeter):30.38 inches Hg (1029.0 mb)
Winds:from the E (100 degrees) at 13 MPH (11 knots; 5.7 m/s)
Visibility:6 or more sm (10+ km)
Ceiling:at least 12,000 feet AGL
Clouds:sky clear below 12,000 feet AGL

TAF for:EKRN (Ronne/Bornholm Arpt, --, DN) issued at 0458 UTC 07 Apr 2020
Text:TAF EKRN 070458Z 0706/0715 30012KT CAVOK
Forecast period:0600 to 1500 UTC 07 April 2020
Forecast type:FROM: standard forecast or significant change
Winds:from the WNW (300 degrees) at 14 MPH (12 knots; 6.2 m/s)
Visibility:6 or more sm (10+ km)
Clouds:missing
Weather:NSW (no significant weather)